createdAt,value
2022-09-09T00:00:46.598Z,96092.00
2022-09-09T00:05:02.471Z,96092.00
2022-09-09T00:09:13.141Z,96096.00
2022-09-09T00:13:21.980Z,96092.00
2022-09-09T00:17:37.473Z,96092.00
2022-09-09T00:21:45.787Z,96092.00
2022-09-09T00:25:54.263Z,96078.00
2022-09-09T00:30:01.006Z,96069.00
2022-09-09T00:34:34.335Z,96073.00
2022-09-09T00:38:40.061Z,96076.00
2022-09-09T00:42:44.870Z,96081.00
2022-09-09T00:46:58.940Z,96071.00
2022-09-09T00:51:12.454Z,96078.00
2022-09-09T00:55:43.637Z,96086.00
2022-09-09T00:59:51.356Z,96084.00
2022-09-09T01:03:56.443Z,96095.00
2022-09-09T01:08:04.356Z,96101.00
2022-09-09T01:12:41.994Z,96092.00
2022-09-09T01:16:46.543Z,96090.00
2022-09-09T01:20:57.695Z,96082.00
2022-09-09T01:25:30.894Z,96092.00
2022-09-09T01:29:35.499Z,96079.00
2022-09-09T01:33:38.522Z,96086.00
2022-09-09T01:37:41.856Z,96079.00
2022-09-09T01:42:11.226Z,96084.00
2022-09-09T01:46:16.095Z,96077.00
2022-09-09T01:50:19.576Z,96082.00
2022-09-09T01:54:24.671Z,96086.00
2022-09-09T01:58:36.177Z,96082.00
2022-09-09T02:02:49.323Z,96074.00
2022-09-09T02:06:58.001Z,96074.00
2022-09-09T02:11:03.994Z,96075.00
2022-09-09T02:15:13.305Z,96073.00
2022-09-09T02:19:24.947Z,96076.00
2022-09-09T02:23:28.432Z,96076.00
2022-09-09T02:27:32.061Z,96081.00
2022-09-09T02:31:36.581Z,96076.00
2022-09-09T02:35:44.172Z,96071.00
2022-09-09T02:40:15.342Z,96071.00
2022-09-09T02:44:20.152Z,96065.00
2022-09-09T02:48:31.210Z,96060.00
2022-09-09T02:52:45.094Z,96062.00
2022-09-09T02:56:52.161Z,96062.00
2022-09-09T03:00:55.298Z,96066.00
2022-09-09T03:05:10.249Z,96058.00
2022-09-09T03:09:14.689Z,96058.00
2022-09-09T03:13:20.483Z,96053.00
2022-09-09T03:17:24.065Z,96054.00
2022-09-09T03:21:58.407Z,96056.00
2022-09-09T03:26:03.323Z,96062.00
2022-09-09T03:30:07.354Z,96061.00
2022-09-09T03:34:10.393Z,96074.00
2022-09-09T03:38:13.641Z,96076.00
2022-09-09T03:42:20.262Z,96069.00
2022-09-09T03:46:25.388Z,96064.00
2022-09-09T03:51:01.852Z,96069.00
2022-09-09T03:55:05.526Z,96069.00
2022-09-09T03:59:10.594Z,96066.00
2022-09-09T04:03:14.266Z,96073.00
2022-09-09T04:07:17.258Z,96074.00
2022-09-09T04:11:20.979Z,96078.00
2022-09-09T04:15:25.465Z,96075.00
2022-09-09T04:19:59.266Z,96071.00
2022-09-09T04:24:02.271Z,96078.00
2022-09-09T04:28:05.389Z,96077.00
2022-09-09T04:32:09.803Z,96077.00
2022-09-09T04:36:43.459Z,96073.00
2022-09-09T04:40:48.428Z,96068.00
2022-09-09T04:44:51.435Z,96071.00
2022-09-09T04:48:55.907Z,96056.00
2022-09-09T04:53:01.939Z,96057.00
2022-09-09T04:57:05.262Z,96056.00
2022-09-09T05:01:09.637Z,96046.00
2022-09-09T05:05:48.249Z,96046.00
2022-09-09T05:09:51.437Z,96052.00
2022-09-09T05:13:55.128Z,96055.00
2022-09-09T05:18:00.102Z,96054.00
2022-09-09T05:22:05.445Z,96058.00
2022-09-09T05:26:15.406Z,96057.00
2022-09-09T05:30:20.284Z,96062.00
2022-09-09T05:34:23.506Z,96076.00
2022-09-09T05:38:28.940Z,96079.00
2022-09-09T05:42:33.590Z,96078.00
2022-09-09T05:46:36.723Z,96094.00
2022-09-09T05:51:11.851Z,96093.00
2022-09-09T05:55:16.568Z,96100.00
2022-09-09T05:59:19.781Z,96102.00
2022-09-09T06:08:40.785Z,96094.00
2022-09-09T06:12:45.134Z,96106.00
2022-09-09T06:16:48.148Z,96101.00
2022-09-09T06:21:25.669Z,96104.00
2022-09-09T06:25:28.681Z,96102.00
2022-09-09T06:29:33.084Z,96093.00
2022-09-09T06:34:07.607Z,96102.00
2022-09-09T06:38:10.615Z,96103.00
2022-09-09T06:42:13.729Z,96106.00
2022-09-09T06:46:20.398Z,96117.00
2022-09-09T06:50:55.295Z,96109.00
2022-09-09T06:54:59.730Z,96115.00
2022-09-09T06:59:05.065Z,96115.00
2022-09-09T07:03:10.133Z,96121.00
2022-09-09T07:07:44.297Z,96124.00
2022-09-09T07:11:49.765Z,96129.00
2022-09-09T07:15:52.762Z,96129.00
2022-09-09T07:20:31.238Z,96131.00
2022-09-09T07:24:34.605Z,96126.00
2022-09-09T07:28:38.186Z,96127.00
2022-09-09T07:33:12.241Z,96142.00
2022-09-09T07:37:17.034Z,96142.00
2022-09-09T07:41:22.836Z,96142.00
2022-09-09T07:45:26.085Z,96149.00
2022-09-09T07:49:32.781Z,96159.00
2022-09-09T07:53:39.358Z,96166.00
2022-09-09T07:57:42.400Z,96168.00
2022-09-09T08:01:47.662Z,96161.00
2022-09-09T08:06:21.404Z,96175.00
2022-09-09T08:10:25.837Z,96178.00
2022-09-09T08:14:29.329Z,96180.00
2022-09-09T08:18:32.364Z,96166.00
2022-09-09T08:22:35.412Z,96174.00
2022-09-09T08:26:42.593Z,96178.00
2022-09-09T08:30:45.979Z,96182.00
2022-09-09T08:35:21.297Z,96165.00
2022-09-09T08:39:25.296Z,96182.00
2022-09-09T08:43:31.210Z,96183.00
2022-09-09T08:47:41.951Z,96190.00
2022-09-09T08:51:45.193Z,96184.00
2022-09-09T08:56:24.622Z,96177.00
2022-09-09T09:00:35.821Z,96198.00
2022-09-09T09:04:53.522Z,96187.00
2022-09-09T09:09:23.310Z,96193.00
2022-09-09T09:13:41.653Z,96191.00
2022-09-09T09:17:48.010Z,96200.00
2022-09-09T09:22:29.761Z,96192.00
2022-09-09T09:26:35.506Z,96192.00
2022-09-09T09:31:11.596Z,96186.00
2022-09-09T09:35:16.341Z,96188.00
2022-09-09T09:43:56.588Z,96183.00
2022-09-09T09:48:07.793Z,96172.00
2022-09-09T09:52:38.744Z,96174.00
2022-09-09T09:56:43.622Z,96174.00
2022-09-09T10:00:51.822Z,96179.00
2022-09-09T10:05:17.340Z,96181.00
2022-09-09T10:09:25.193Z,96176.00
2022-09-09T10:13:37.497Z,96171.00
2022-09-09T10:17:51.226Z,96176.00
2022-09-09T10:22:27.343Z,96174.00
2022-09-09T10:26:41.134Z,96171.00
2022-09-09T10:30:58.315Z,96173.00
2022-09-09T10:35:28.675Z,96173.00
2022-09-09T10:39:42.137Z,96163.00
2022-09-09T10:44:06.136Z,96162.00
2022-09-09T10:48:32.913Z,96168.00
2022-09-09T10:52:44.178Z,96161.00
2022-09-09T10:56:57.728Z,96156.00
2022-09-09T11:01:08.891Z,96157.00
2022-09-09T11:05:21.087Z,96158.00
2022-09-09T11:09:27.300Z,96163.00
2022-09-09T11:13:37.601Z,96159.00
2022-09-09T11:17:46.012Z,96160.00
2022-09-09T11:22:27.523Z,96157.00
2022-09-09T11:26:35.133Z,96145.00
2022-09-09T11:30:57.022Z,96149.00
2022-09-09T11:35:23.543Z,96149.00
2022-09-09T11:39:55.934Z,96148.00
2022-09-09T11:44:00.132Z,96154.00
2022-09-09T11:48:04.400Z,96154.00
2022-09-09T11:52:13.880Z,96154.00
2022-09-09T11:56:28.505Z,96147.00
2022-09-09T12:00:36.202Z,96145.00
2022-09-09T12:05:09.663Z,96142.00
2022-09-09T12:09:21.194Z,96142.00
2022-09-09T12:13:27.899Z,96140.00
2022-09-09T12:17:32.890Z,96138.00
2022-09-09T12:22:10.239Z,96140.00
2022-09-09T12:26:33.814Z,96144.00
2022-09-09T12:30:50.764Z,96147.00
2022-09-09T12:34:58.189Z,96138.00
2022-09-09T12:39:17.156Z,96135.00
2022-09-09T12:43:22.376Z,96130.00
2022-09-09T12:47:59.580Z,96120.00
2022-09-09T12:52:06.894Z,96118.00
2022-09-09T12:56:20.544Z,96106.00
2022-09-09T13:00:52.002Z,96113.00
2022-09-09T13:04:57.088Z,96104.00
2022-09-09T13:09:02.121Z,96094.00
2022-09-09T13:13:16.978Z,96080.00
2022-09-09T13:17:23.735Z,96074.00
2022-09-09T13:21:36.250Z,96069.00
2022-09-09T13:26:05.247Z,96064.00
2022-09-09T13:30:24.899Z,96066.00
2022-09-09T13:34:30.914Z,96063.00
2022-09-09T13:38:39.295Z,96060.00
2022-09-09T13:42:44.233Z,96061.00
2022-09-09T13:46:47.361Z,96064.00
2022-09-09T13:50:57.701Z,96065.00
2022-09-09T13:55:28.300Z,96066.00
2022-09-09T13:59:48.009Z,96059.00
2022-09-09T14:03:54.269Z,96045.00
2022-09-09T14:07:57.337Z,96053.00
2022-09-09T14:12:01.799Z,96061.00
2022-09-09T14:16:04.842Z,96052.00
2022-09-09T14:20:10.253Z,96053.00
2022-09-09T14:24:43.930Z,96043.00
2022-09-09T14:28:56.270Z,96044.00
2022-09-09T14:32:59.515Z,96044.00
2022-09-09T14:37:36.502Z,96040.00
2022-09-09T14:41:39.540Z,96047.00
2022-09-09T14:45:44.464Z,96038.00
2022-09-09T14:49:50.886Z,96053.00
2022-09-09T14:54:22.354Z,96056.00
2022-09-09T14:58:28.353Z,96055.00
2022-09-09T15:02:36.632Z,96050.00
2022-09-09T15:06:40.301Z,96049.00
2022-09-09T15:10:45.945Z,96041.00
2022-09-09T15:14:49.387Z,96051.00
2022-09-09T15:19:26.207Z,96050.00
2022-09-09T15:23:30.779Z,96043.00
2022-09-09T15:27:35.315Z,96043.00
2022-09-09T15:32:09.328Z,96034.00
2022-09-09T15:36:16.830Z,96035.00
2022-09-09T15:40:21.247Z,96036.00
2022-09-09T15:44:26.758Z,96032.00
2022-09-09T15:48:34.670Z,96023.00
2022-09-09T15:52:37.706Z,96021.00
2022-09-09T15:56:42.767Z,96036.00
2022-09-09T16:01:17.828Z,96059.00
2022-09-09T16:05:21.981Z,96060.00
2022-09-09T16:09:24.974Z,96040.00
2022-09-09T16:13:29.400Z,96042.00
2022-09-09T16:18:02.995Z,96048.00
2022-09-09T16:22:07.657Z,96066.00
2022-09-09T16:26:13.566Z,96101.00
2022-09-09T16:30:18.165Z,96109.00
2022-09-09T16:34:21.422Z,96130.00
2022-09-09T16:38:25.288Z,96134.00
2022-09-09T16:42:28.691Z,96121.00
2022-09-09T16:47:06.905Z,96104.00
2022-09-09T16:51:15.277Z,96082.00
2022-09-09T16:55:18.278Z,96069.00
2022-09-09T16:59:56.956Z,96053.00
2022-09-09T17:04:03.073Z,96057.00
2022-09-09T17:08:06.491Z,96064.00
2022-09-09T17:12:13.169Z,96053.00
2022-09-09T17:16:44.218Z,96064.00
2022-09-09T17:20:48.648Z,96075.00
2022-09-09T17:24:51.669Z,96074.00
2022-09-09T17:29:18.807Z,96080.00
2022-09-09T17:33:22.213Z,96093.00
2022-09-09T17:37:26.649Z,96095.00
2022-09-09T17:41:31.395Z,96105.00
2022-09-09T17:45:34.395Z,96104.00
2022-09-09T17:49:37.534Z,96106.00
2022-09-09T17:53:43.473Z,96107.00
2022-09-09T17:58:16.898Z,96111.00
2022-09-09T18:02:20.051Z,96112.00
2022-09-09T18:06:27.599Z,96116.00
2022-09-09T18:10:59.619Z,96121.00
2022-09-09T18:15:04.271Z,96133.00
2022-09-09T18:19:13.881Z,96140.00
2022-09-09T18:23:17.010Z,96151.00
2022-09-09T18:27:55.111Z,96147.00
2022-09-09T18:31:58.492Z,96161.00
2022-09-09T18:36:06.515Z,96165.00
2022-09-09T18:40:21.662Z,96170.00
2022-09-09T18:44:27.538Z,96173.00
2022-09-09T18:48:30.658Z,96181.00
2022-09-09T18:52:33.702Z,96184.00
2022-09-09T18:56:37.181Z,96180.00
2022-09-09T19:00:41.595Z,96180.00
2022-09-09T19:04:44.606Z,96183.00
2022-09-09T19:09:21.151Z,96182.00
2022-09-09T19:13:24.407Z,96196.00
2022-09-09T19:17:30.478Z,96186.00
2022-09-09T19:22:11.709Z,96198.00
2022-09-09T19:26:17.149Z,96183.00
2022-09-09T19:30:20.409Z,96186.00
2022-09-09T19:34:25.160Z,96178.00
2022-09-09T19:38:28.466Z,96177.00
2022-09-09T19:42:32.206Z,96175.00
2022-09-09T19:46:36.805Z,96181.00
2022-09-09T19:51:13.250Z,96193.00
2022-09-09T19:55:16.444Z,96194.00
2022-09-09T19:59:19.538Z,96203.00
2022-09-09T20:03:22.620Z,96192.00
2022-09-09T20:07:58.797Z,96192.00
2022-09-09T20:12:01.963Z,96187.00
2022-09-09T20:16:08.004Z,96187.00
2022-09-09T20:20:12.579Z,96192.00
2022-09-09T20:24:18.626Z,96182.00
2022-09-09T20:28:21.908Z,96181.00
2022-09-09T20:32:25.018Z,96173.00
2022-09-09T20:37:02.803Z,96175.00
2022-09-09T20:41:07.820Z,96182.00
2022-09-09T20:45:16.233Z,96188.00
2022-09-09T20:49:20.972Z,96194.00
2022-09-09T20:53:55.490Z,96206.00
2022-09-09T20:58:00.350Z,96210.00
2022-09-09T21:02:03.696Z,96222.00
2022-09-09T21:06:40.767Z,96219.00
2022-09-09T21:10:45.885Z,96236.00
2022-09-09T21:14:50.312Z,96234.00
2022-09-09T21:19:24.331Z,96221.00
2022-09-09T21:23:27.977Z,96233.00
2022-09-09T21:27:31.013Z,96221.00
2022-09-09T21:31:35.504Z,96217.00
2022-09-09T21:36:10.161Z,96202.00
2022-09-09T21:40:13.207Z,96204.00
2022-09-09T21:44:16.471Z,96210.00
2022-09-09T21:48:21.239Z,96217.00
2022-09-09T21:52:24.421Z,96214.00
2022-09-09T21:57:01.313Z,96220.00
2022-09-09T22:01:10.290Z,96222.00
2022-09-09T22:05:14.909Z,96221.00
2022-09-09T22:09:48.471Z,96232.00
2022-09-09T22:13:53.255Z,96232.00
2022-09-09T22:17:56.515Z,96242.00
2022-09-09T22:22:00.922Z,96243.00
2022-09-09T22:26:04.126Z,96244.00
2022-09-09T22:30:08.422Z,96235.00
2022-09-09T22:34:11.495Z,96235.00
2022-09-09T22:38:15.898Z,96240.00
2022-09-09T22:42:19.493Z,96238.00
2022-09-09T22:46:24.129Z,96240.00
2022-09-09T22:50:28.008Z,96236.00
2022-09-09T22:54:32.455Z,96232.00
2022-09-09T22:58:38.041Z,96227.00
2022-09-09T23:02:41.934Z,96222.00
2022-09-09T23:06:45.066Z,96219.00
2022-09-09T23:10:49.901Z,96230.00
2022-09-09T23:14:54.183Z,96223.00
2022-09-09T23:18:57.416Z,96221.00
2022-09-09T23:23:01.276Z,96227.00
2022-09-09T23:27:06.010Z,96217.00
2022-09-09T23:31:44.508Z,96219.00
2022-09-09T23:35:47.504Z,96218.00
2022-09-09T23:39:50.607Z,96215.00
2022-09-09T23:43:55.849Z,96213.00
2022-09-09T23:48:30.513Z,96212.00
2022-09-09T23:52:33.689Z,96215.00
2022-09-09T23:56:38.795Z,96209.00
